sensor_id;sensor_type;location;lat;lon;timestamp;pressure;altitude;pressure_sealevel;temperature;humidity
8280;BME280;8335;42.646;23.380;2023-03-16T00:01:07;142477.81;;;3.51;100.00
8280;BME280;8335;42.646;23.380;2023-03-16T00:03:35;142492.63;;;3.57;100.00
8280;BME280;8335;42.646;23.380;2023-03-16T00:06:02;142476.59;;;3.50;100.00
8280;BME280;8335;42.646;23.380;2023-03-16T00:08:29;142465.44;;;3.46;100.00
8280;BME280;8335;42.646;23.380;2023-03-16T00:10:56;142433.31;;;3.33;100.00
8280;BME280;8335;42.646;23.380;2023-03-16T00:13:23;142409.88;;;3.23;100.00
8280;BME280;8335;42.646;23.380;2023-03-16T00:15:51;142427.16;;;3.30;100.00
8280;BME280;8335;42.646;23.380;2023-03-16T00:18:18;142428.38;;;3.30;100.00
8280;BME280;8335;42.646;23.380;2023-03-16T00:20:52;142438.25;;;3.35;100.00
8280;BME280;8335;42.646;23.380;2023-03-16T00:23:20;142359.22;;;3.02;100.00
8280;BME280;8335;42.646;23.380;2023-03-16T00:25:54;142404.88;;;3.21;100.00
8280;BME280;8335;42.646;23.380;2023-03-16T00:28:23;142381.44;;;3.11;100.00
8280;BME280;8335;42.646;23.380;2023-03-16T00:30:50;142397.50;;;3.18;100.00
8280;BME280;8335;42.646;23.380;2023-03-16T00:33:17;142380.19;;;3.11;100.00
8280;BME280;8335;42.646;23.380;2023-03-16T00:35:45;142381.44;;;3.11;100.00
8280;BME280;8335;42.646;23.380;2023-03-16T00:38:16;142378.97;;;3.10;100.00
8280;BME280;8335;42.646;23.380;2023-03-16T00:40:42;142366.59;;;3.05;100.00
8280;BME280;8335;42.646;23.380;2023-03-16T00:43:09;142364.16;;;3.04;100.00
8280;BME280;8335;42.646;23.380;2023-03-16T00:45:36;142332.03;;;2.91;100.00
8280;BME280;8335;42.646;23.380;2023-03-16T00:48:03;142343.16;;;2.95;100.00
8280;BME280;8335;42.646;23.380;2023-03-16T00:50:30;142320.94;;;2.86;100.00
8280;BME280;8335;42.646;23.380;2023-03-16T00:52:57;142312.25;;;2.83;100.00
8280;BME280;8335;42.646;23.380;2023-03-16T00:55:25;142324.63;;;2.88;100.00
8280;BME280;8335;42.646;23.380;2023-03-16T00:57:52;142345.63;;;2.96;100.00
8280;BME280;8335;42.646;23.380;2023-03-16T01:00:23;142323.41;;;2.87;100.00
8280;BME280;8335;42.646;23.380;2023-03-16T01:02:52;142332.03;;;2.91;100.00
8280;BME280;8335;42.646;23.380;2023-03-16T01:05:19;142302.38;;;2.79;100.00
8280;BME280;8335;42.646;23.380;2023-03-16T01:07:46;142276.47;;;2.68;100.00
8280;BME280;8335;42.646;23.380;2023-03-16T01:10:13;142283.84;;;2.71;100.00
8280;BME280;8335;42.646;23.380;2023-03-16T01:12:42;142166.59;;;2.23;100.00
8280;BME280;8335;42.646;23.380;2023-03-16T01:15:10;142251.78;;;2.58;100.00
8280;BME280;8335;42.646;23.380;2023-03-16T01:17:38;142251.78;;;2.58;100.00
8280;BME280;8335;42.646;23.380;2023-03-16T01:20:06;142228.28;;;2.48;100.00
8280;BME280;8335;42.646;23.380;2023-03-16T01:22:36;142233.28;;;2.50;100.00
8280;BME280;8335;42.646;23.380;2023-03-16T01:25:03;142250.56;;;2.57;100.00
8280;BME280;8335;42.646;23.380;2023-03-16T01:27:30;142241.88;;;2.54;100.00
8280;BME280;8335;42.646;23.380;2023-03-16T01:29:58;142248.03;;;2.56;100.00
8280;BME280;8335;42.646;23.380;2023-03-16T01:32:26;142238.19;;;2.52;100.00
8280;BME280;8335;42.646;23.380;2023-03-16T01:34:53;142256.72;;;2.60;100.00
8280;BME280;8335;42.646;23.380;2023-03-16T01:37:20;142275.22;;;2.67;100.00
8280;BME280;8335;42.646;23.380;2023-03-16T01:39:47;142291.28;;;2.74;100.00
8280;BME280;8335;42.646;23.380;2023-03-16T01:42:14;142286.34;;;2.72;100.00
8280;BME280;8335;42.646;23.380;2023-03-16T01:44:52;142225.84;;;2.47;100.00
8280;BME280;8335;42.646;23.380;2023-03-16T01:47:22;142230.75;;;2.49;100.00
8280;BME280;8335;42.646;23.380;2023-03-16T01:49:50;142214.72;;;2.42;100.00
8280;BME280;8335;42.646;23.380;2023-03-16T01:52:22;142177.69;;;2.27;100.00
8280;BME280;8335;42.646;23.380;2023-03-16T01:54:52;142193.72;;;2.34;100.00
8280;BME280;8335;42.646;23.380;2023-03-16T01:57:21;142154.25;;;2.17;100.00
8280;BME280;8335;42.646;23.380;2023-03-16T01:59:55;142176.44;;;2.27;100.00
8280;BME280;8335;42.646;23.380;2023-03-16T02:02:27;142208.56;;;2.40;100.00
8280;BME280;8335;42.646;23.380;2023-03-16T02:05:00;142207.31;;;2.39;100.00
8280;BME280;8335;42.646;23.380;2023-03-16T02:07:28;142207.31;;;2.39;100.00
8280;BME280;8335;42.646;23.380;2023-03-16T02:09:59;142214.72;;;2.42;100.00
8280;BME280;8335;42.646;23.380;2023-03-16T02:12:29;142218.44;;;2.44;100.00
8280;BME280;8335;42.646;23.380;2023-03-16T02:14:56;142220.91;;;2.45;100.00
8280;BME280;8335;42.646;23.380;2023-03-16T02:17:27;142178.91;;;2.28;100.00
8280;BME280;8335;42.646;23.380;2023-03-16T02:20:01;142180.13;;;2.28;100.00
8280;BME280;8335;42.646;23.380;2023-03-16T02:22:33;142193.72;;;2.34;100.00
8280;BME280;8335;42.646;23.380;2023-03-16T02:25:01;142187.56;;;2.31;100.00
8280;BME280;8335;42.646;23.380;2023-03-16T02:27:33;142165.38;;;2.22;100.00
8280;BME280;8335;42.646;23.380;2023-03-16T02:30:07;142190.03;;;2.32;100.00
8280;BME280;8335;42.646;23.380;2023-03-16T02:32:35;142141.88;;;2.12;100.00
8280;BME280;8335;42.646;23.380;2023-03-16T02:35:04;142191.28;;;2.33;100.00
8280;BME280;8335;42.646;23.380;2023-03-16T02:37:31;142188.81;;;2.32;100.00
8280;BME280;8335;42.646;23.380;2023-03-16T02:39:59;142193.72;;;2.34;100.00
8280;BME280;8335;42.646;23.380;2023-03-16T02:42:27;142185.13;;;2.30;100.00
8280;BME280;8335;42.646;23.380;2023-03-16T02:44:56;142174.00;;;2.26;100.00
8280;BME280;8335;42.646;23.380;2023-03-16T02:47:31;142180.13;;;2.28;100.00
8280;BME280;8335;42.646;23.380;2023-03-16T02:49:59;142185.13;;;2.30;100.00
8280;BME280;8335;42.646;23.380;2023-03-16T02:52:30;142191.28;;;2.33;100.00
8280;BME280;8335;42.646;23.380;2023-03-16T02:54:57;142182.66;;;2.29;100.00
8280;BME280;8335;42.646;23.380;2023-03-16T02:57:24;142151.78;;;2.16;100.00
8280;BME280;8335;42.646;23.380;2023-03-16T02:59:51;142165.38;;;2.22;100.00
8280;BME280;8335;42.646;23.380;2023-03-16T03:02:18;142153.00;;;2.17;100.00
8280;BME280;8335;42.646;23.380;2023-03-16T03:04:46;142156.72;;;2.18;100.00
8280;BME280;8335;42.646;23.380;2023-03-16T03:07:12;142172.75;;;2.25;100.00
8280;BME280;8335;42.646;23.380;2023-03-16T03:09:40;142117.22;;;2.02;100.00
8280;BME280;8335;42.646;23.380;2023-03-16T03:12:07;142124.63;;;2.05;100.00
8280;BME280;8335;42.646;23.380;2023-03-16T03:14:35;141961.78;;;1.38;100.00
8280;BME280;8335;42.646;23.380;2023-03-16T03:17:02;142112.31;;;2.00;100.00
8280;BME280;8335;42.646;23.380;2023-03-16T03:19:29;142098.72;;;1.95;100.00
8280;BME280;8335;42.646;23.380;2023-03-16T03:21:59;142090.06;;;1.91;100.00
8280;BME280;8335;42.646;23.380;2023-03-16T03:24:28;142095.03;;;1.93;100.00
8280;BME280;8335;42.646;23.380;2023-03-16T03:26:56;142101.19;;;1.96;100.00
8280;BME280;8335;42.646;23.380;2023-03-16T03:29:23;142081.44;;;1.87;100.00
8280;BME280;8335;42.646;23.380;2023-03-16T03:31:49;142083.91;;;1.88;100.00
8280;BME280;8335;42.646;23.380;2023-03-16T03:34:16;142074.00;;;1.84;100.00
8280;BME280;8335;42.646;23.380;2023-03-16T03:36:43;142051.81;;;1.75;100.00
8280;BME280;8335;42.646;23.380;2023-03-16T03:39:11;142040.69;;;1.71;100.00
8280;BME280;8335;42.646;23.380;2023-03-16T03:41:38;142016.03;;;1.60;100.00
8280;BME280;8335;42.646;23.380;2023-03-16T03:44:04;142006.16;;;1.56;100.00
8280;BME280;8335;42.646;23.380;2023-03-16T03:46:31;142003.69;;;1.55;100.00
8280;BME280;8335;42.646;23.380;2023-03-16T03:48:58;142002.47;;;1.55;100.00
8280;BME280;8335;42.646;23.380;2023-03-16T03:51:28;142006.16;;;1.56;100.00
8280;BME280;8335;42.646;23.380;2023-03-16T03:53:55;142012.34;;;1.59;100.00
8280;BME280;8335;42.646;23.380;2023-03-16T03:56:23;141998.78;;;1.53;100.00
8280;BME280;8335;42.646;23.380;2023-03-16T03:58:50;141987.66;;;1.49;100.00
8280;BME280;8335;42.646;23.380;2023-03-16T04:01:17;141997.53;;;1.53;100.00
8280;BME280;8335;42.646;23.380;2023-03-16T04:03:44;141997.53;;;1.53;100.00
8280;BME280;8335;42.646;23.380;2023-03-16T04:06:10;142004.94;;;1.56;100.00
8280;BME280;8335;42.646;23.380;2023-03-16T04:08:37;141982.72;;;1.47;100.00
8280;BME280;8335;42.646;23.380;2023-03-16T04:11:04;141976.59;;;1.44;100.00
8280;BME280;8335;42.646;23.380;2023-03-16T04:13:32;141980.28;;;1.46;100.00
8280;BME280;8335;42.646;23.380;2023-03-16T04:16:00;141983.97;;;1.47;100.00
8280;BME280;8335;42.646;23.380;2023-03-16T04:18:27;141966.69;;;1.40;100.00
8280;BME280;8335;42.646;23.380;2023-03-16T04:20:54;141967.94;;;1.41;100.00
8280;BME280;8335;42.646;23.380;2023-03-16T04:23:21;141948.19;;;1.32;100.00
8280;BME280;8335;42.646;23.380;2023-03-16T04:25:49;141951.88;;;1.34;100.00
8280;BME280;8335;42.646;23.380;2023-03-16T04:28:16;141942.06;;;1.30;100.00
8280;BME280;8335;42.646;23.380;2023-03-16T04:30:44;141948.19;;;1.32;100.00
8280;BME280;8335;42.646;23.380;2023-03-16T04:33:11;141951.88;;;1.34;100.00
8280;BME280;8335;42.646;23.380;2023-03-16T04:35:39;141946.97;;;1.32;100.00
8280;BME280;8335;42.646;23.380;2023-03-16T04:38:06;141975.34;;;1.44;100.00
8280;BME280;8335;42.646;23.380;2023-03-16T04:40:35;141970.38;;;1.42;100.00
8280;BME280;8335;42.646;23.380;2023-03-16T04:43:01;141976.59;;;1.44;100.00
8280;BME280;8335;42.646;23.380;2023-03-16T04:45:28;141982.72;;;1.47;100.00
8280;BME280;8335;42.646;23.380;2023-03-16T04:47:56;141974.13;;;1.43;100.00
8280;BME280;8335;42.646;23.380;2023-03-16T04:50:23;141980.28;;;1.46;100.00
8280;BME280;8335;42.646;23.380;2023-03-16T04:52:50;141970.38;;;1.42;100.00
8280;BME280;8335;42.646;23.380;2023-03-16T04:55:16;141972.84;;;1.43;100.00
8280;BME280;8335;42.646;23.380;2023-03-16T04:57:43;141981.50;;;1.46;100.00
8280;BME280;8335;42.646;23.380;2023-03-16T05:00:11;141974.13;;;1.43;100.00
8280;BME280;8335;42.646;23.380;2023-03-16T05:02:43;141974.13;;;1.43;100.00
8280;BME280;8335;42.646;23.380;2023-03-16T05:05:11;141965.47;;;1.40;100.00
8280;BME280;8335;42.646;23.380;2023-03-16T05:07:39;141986.44;;;1.48;100.00
8280;BME280;8335;42.646;23.380;2023-03-16T05:10:07;141974.13;;;1.43;100.00
8280;BME280;8335;42.646;23.380;2023-03-16T05:12:34;141983.97;;;1.47;100.00
8280;BME280;8335;42.646;23.380;2023-03-16T05:15:01;141993.84;;;1.51;100.00
8280;BME280;8335;42.646;23.380;2023-03-16T05:17:28;141993.84;;;1.51;100.00
8280;BME280;8335;42.646;23.380;2023-03-16T05:19:54;141995.09;;;1.52;100.00
8280;BME280;8335;42.646;23.380;2023-03-16T05:22:23;142011.13;;;1.58;100.00
8280;BME280;8335;42.646;23.380;2023-03-16T05:24:50;142018.50;;;1.61;100.00
8280;BME280;8335;42.646;23.380;2023-03-16T05:27:16;142012.34;;;1.59;100.00
8280;BME280;8335;42.646;23.380;2023-03-16T05:29:44;142018.50;;;1.61;100.00
8280;BME280;8335;42.646;23.380;2023-03-16T05:32:11;142014.81;;;1.60;100.00
8280;BME280;8335;42.646;23.380;2023-03-16T05:34:38;142016.03;;;1.60;100.00
8280;BME280;8335;42.646;23.380;2023-03-16T05:37:07;142024.66;;;1.64;100.00
8280;BME280;8335;42.646;23.380;2023-03-16T05:39:36;142039.47;;;1.70;100.00
8280;BME280;8335;42.646;23.380;2023-03-16T05:42:03;142040.69;;;1.71;100.00
8280;BME280;8335;42.646;23.380;2023-03-16T05:44:30;142053.06;;;1.76;100.00
8280;BME280;8335;42.646;23.380;2023-03-16T05:46:57;142059.19;;;1.78;100.00
8280;BME280;8335;42.646;23.380;2023-03-16T05:49:24;142053.06;;;1.76;100.00
8280;BME280;8335;42.646;23.380;2023-03-16T05:51:51;142018.50;;;1.61;100.00
8280;BME280;8335;42.646;23.380;2023-03-16T05:54:18;142043.19;;;1.72;100.00
8280;BME280;8335;42.646;23.380;2023-03-16T05:56:46;142038.22;;;1.70;100.00
8280;BME280;8335;42.646;23.380;2023-03-16T05:59:13;142055.50;;;1.77;100.00
8280;BME280;8335;42.646;23.380;2023-03-16T06:01:42;142056.75;;;1.77;100.00
8280;BME280;8335;42.646;23.380;2023-03-16T06:04:09;142045.66;;;1.73;100.00
8280;BME280;8335;42.646;23.380;2023-03-16T06:06:35;142061.72;;;1.79;100.00
8280;BME280;8335;42.646;23.380;2023-03-16T06:09:02;142050.59;;;1.75;100.00
8280;BME280;8335;42.646;23.380;2023-03-16T06:11:29;142043.19;;;1.72;100.00
8280;BME280;8335;42.646;23.380;2023-03-16T06:13:58;142048.13;;;1.74;100.00
8280;BME280;8335;42.646;23.380;2023-03-16T06:16:25;142040.69;;;1.71;100.00
8280;BME280;8335;42.646;23.380;2023-03-16T06:18:53;142030.84;;;1.67;100.00
8280;BME280;8335;42.646;23.380;2023-03-16T06:21:21;142048.13;;;1.74;100.00
8280;BME280;8335;42.646;23.380;2023-03-16T06:23:47;142071.56;;;1.83;100.00
8280;BME280;8335;42.646;23.380;2023-03-16T06:26:14;142087.59;;;1.90;100.00
8280;BME280;8335;42.646;23.380;2023-03-16T06:28:41;142083.91;;;1.88;100.00
8280;BME280;8335;42.646;23.380;2023-03-16T06:31:09;142099.94;;;1.95;100.00
8280;BME280;8335;42.646;23.380;2023-03-16T06:33:36;142116.00;;;2.02;100.00
8280;BME280;8335;42.646;23.380;2023-03-16T06:36:03;142118.47;;;2.03;100.00
8280;BME280;8335;42.646;23.380;2023-03-16T06:38:30;142135.72;;;2.10;100.00
8280;BME280;8335;42.646;23.380;2023-03-16T06:40:58;142178.91;;;2.28;100.00
8280;BME280;8335;42.646;23.380;2023-03-16T06:43:24;142217.22;;;2.43;100.00
8280;BME280;8335;42.646;23.380;2023-03-16T06:45:51;142214.72;;;2.42;100.00
8280;BME280;8335;42.646;23.380;2023-03-16T06:48:20;142201.16;;;2.37;100.00
8280;BME280;8335;42.646;23.380;2023-03-16T06:50:47;142201.16;;;2.37;100.00
8280;BME280;8335;42.646;23.380;2023-03-16T06:53:13;142204.84;;;2.38;100.00
8280;BME280;8335;42.646;23.380;2023-03-16T06:55:40;142212.25;;;2.41;100.00
8280;BME280;8335;42.646;23.380;2023-03-16T06:58:08;142228.28;;;2.48;100.00
8280;BME280;8335;42.646;23.380;2023-03-16T07:00:36;142225.84;;;2.47;100.00
8280;BME280;8335;42.646;23.380;2023-03-16T07:03:02;142246.81;;;2.56;100.00
8280;BME280;8335;42.646;23.380;2023-03-16T07:05:31;142270.31;;;2.65;100.00
8280;BME280;8335;42.646;23.380;2023-03-16T07:07:57;142265.31;;;2.63;100.00
8280;BME280;8335;42.646;23.380;2023-03-16T07:10:24;142256.72;;;2.60;100.00
8280;BME280;8335;42.646;23.380;2023-03-16T07:12:51;142248.03;;;2.56;100.00
8280;BME280;8335;42.646;23.380;2023-03-16T07:15:19;142238.19;;;2.52;100.00
8280;BME280;8335;42.646;23.380;2023-03-16T07:17:46;142234.50;;;2.51;100.00
8280;BME280;8335;42.646;23.380;2023-03-16T07:20:13;142255.47;;;2.59;100.00
8280;BME280;8335;42.646;23.380;2023-03-16T07:22:41;142245.59;;;2.55;100.00
8280;BME280;8335;42.646;23.380;2023-03-16T07:25:09;142254.25;;;2.59;100.00
8280;BME280;8335;42.646;23.380;2023-03-16T07:27:36;142157.94;;;2.19;100.00
8280;BME280;8335;42.646;23.380;2023-03-16T07:30:04;142257.94;;;2.60;100.00
8280;BME280;8335;42.646;23.380;2023-03-16T07:32:30;142270.31;;;2.65;100.00
8280;BME280;8335;42.646;23.380;2023-03-16T07:34:58;142271.53;;;2.66;100.00
8280;BME280;8335;42.646;23.380;2023-03-16T07:37:25;142209.78;;;2.40;100.00
8280;BME280;8335;42.646;23.380;2023-03-16T07:39:53;142315.97;;;2.84;100.00
8280;BME280;8335;42.646;23.380;2023-03-16T07:42:20;142307.34;;;2.81;100.00
8280;BME280;8335;42.646;23.380;2023-03-16T07:44:47;142339.47;;;2.94;100.00
8280;BME280;8335;42.646;23.380;2023-03-16T07:47:14;142315.97;;;2.84;100.00
8280;BME280;8335;42.646;23.380;2023-03-16T07:49:41;142336.94;;;2.93;100.00
8280;BME280;8335;42.646;23.380;2023-03-16T07:52:09;142334.50;;;2.92;100.00
8280;BME280;8335;42.646;23.380;2023-03-16T07:54:38;142351.78;;;2.99;100.00
8280;BME280;8335;42.646;23.380;2023-03-16T07:57:06;142349.31;;;2.98;100.00
8280;BME280;8335;42.646;23.380;2023-03-16T07:59:33;142332.03;;;2.91;100.00
8280;BME280;8335;42.646;23.380;2023-03-16T08:02:01;142330.78;;;2.90;100.00
8280;BME280;8335;42.646;23.380;2023-03-16T08:04:28;142382.66;;;3.12;100.00
8280;BME280;8335;42.646;23.380;2023-03-16T08:06:55;142397.50;;;3.18;100.00
8280;BME280;8335;42.646;23.380;2023-03-16T08:09:24;142438.25;;;3.35;100.00
8280;BME280;8335;42.646;23.380;2023-03-16T08:11:51;142453.09;;;3.41;100.00
8280;BME280;8335;42.646;23.380;2023-03-16T08:14:19;142485.22;;;3.54;100.00
8280;BME280;8335;42.646;23.380;2023-03-16T08:16:46;142493.88;;;3.57;100.00
8280;BME280;8335;42.646;23.380;2023-03-16T08:19:13;142498.81;;;3.59;100.00
8280;BME280;8335;42.646;23.380;2023-03-16T08:21:41;142487.69;;;3.55;100.00
8280;BME280;8335;42.646;23.380;2023-03-16T08:24:08;142503.75;;;3.62;100.00
8280;BME280;8335;42.646;23.380;2023-03-16T08:26:35;142512.41;;;3.65;100.00
8280;BME280;8335;42.646;23.380;2023-03-16T08:29:02;142555.66;;;3.83;100.00
8280;BME280;8335;42.646;23.380;2023-03-16T08:31:32;142560.59;;;3.85;100.00
8280;BME280;8335;42.646;23.380;2023-03-16T08:34:00;142547.03;;;3.79;100.00
8280;BME280;8335;42.646;23.380;2023-03-16T08:36:27;142534.66;;;3.74;100.00
8280;BME280;8335;42.646;23.380;2023-03-16T08:38:54;142585.34;;;3.95;100.00
8280;BME280;8335;42.646;23.380;2023-03-16T08:41:21;142584.09;;;3.95;100.00
8280;BME280;8335;42.646;23.380;2023-03-16T08:43:48;142542.06;;;3.77;100.00
8280;BME280;8335;42.646;23.380;2023-03-16T08:46:15;142559.34;;;3.84;99.57
8280;BME280;8335;42.646;23.380;2023-03-16T08:48:43;142556.91;;;3.83;100.00
8280;BME280;8335;42.646;23.380;2023-03-16T08:51:10;142587.81;;;3.96;99.89
8280;BME280;8335;42.646;23.380;2023-03-16T08:53:37;142613.75;;;4.07;99.76
8280;BME280;8335;42.646;23.380;2023-03-16T08:56:05;142607.56;;;4.04;100.00
8280;BME280;8335;42.646;23.380;2023-03-16T08:58:33;142605.09;;;4.03;100.00
8280;BME280;8335;42.646;23.380;2023-03-16T09:01:02;142611.28;;;4.06;100.00
8280;BME280;8335;42.646;23.380;2023-03-16T09:03:30;142619.94;;;4.09;98.58
8280;BME280;8335;42.646;23.380;2023-03-16T09:06:01;142611.28;;;4.06;97.83
8280;BME280;8335;42.646;23.380;2023-03-16T09:08:29;142596.44;;;4.00;98.16
8280;BME280;8335;42.646;23.380;2023-03-16T09:10:59;142554.44;;;3.82;98.60
8280;BME280;8335;42.646;23.380;2023-03-16T09:13:27;142558.13;;;3.84;98.67
8280;BME280;8335;42.646;23.380;2023-03-16T09:15:54;142572.97;;;3.90;97.54
8280;BME280;8335;42.646;23.380;2023-03-16T09:18:23;142399.97;;;3.19;97.34
8280;BME280;8335;42.646;23.380;2023-03-16T09:20:51;142555.66;;;3.83;97.35
8280;BME280;8335;42.646;23.380;2023-03-16T09:23:19;142528.50;;;3.72;97.94
8280;BME280;8335;42.646;23.380;2023-03-16T09:25:48;142524.75;;;3.70;98.72
8280;BME280;8335;42.646;23.380;2023-03-16T09:28:15;142560.59;;;3.85;99.78
8280;BME280;8335;42.646;23.380;2023-03-16T09:30:42;142563.09;;;3.86;98.87
8280;BME280;8335;42.646;23.380;2023-03-16T09:33:09;142575.44;;;3.91;97.51
8280;BME280;8335;42.646;23.380;2023-03-16T09:35:36;142584.09;;;3.95;97.23
8280;BME280;8335;42.646;23.380;2023-03-16T09:38:03;142591.50;;;3.98;97.86
8280;BME280;8335;42.646;23.380;2023-03-16T09:40:33;142539.59;;;3.76;98.01
8280;BME280;8335;42.646;23.380;2023-03-16T09:43:19;142592.72;;;3.98;97.61
8280;BME280;8335;42.646;23.380;2023-03-16T09:45:54;142589.03;;;3.97;97.92
8280;BME280;8335;42.646;23.380;2023-03-16T09:48:26;142556.91;;;3.83;97.17
8280;BME280;8335;42.646;23.380;2023-03-16T09:50:54;142582.88;;;3.94;96.17
8280;BME280;8335;42.646;23.380;2023-03-16T09:53:24;142592.72;;;3.98;96.60
8280;BME280;8335;42.646;23.380;2023-03-16T09:55:59;142555.66;;;3.83;97.40
8280;BME280;8335;42.646;23.380;2023-03-16T09:58:28;142631.06;;;4.14;97.65
8280;BME280;8335;42.646;23.380;2023-03-16T10:01:04;142612.50;;;4.06;97.04
8280;BME280;8335;42.646;23.380;2023-03-16T10:03:54;142645.91;;;4.20;96.89
8280;BME280;8335;42.646;23.380;2023-03-16T10:06:27;142659.50;;;4.26;96.48
8280;BME280;8335;42.646;23.380;2023-03-16T10:09:02;142653.34;;;4.23;96.80
8280;BME280;8335;42.646;23.380;2023-03-16T10:11:37;142612.50;;;4.06;98.27
8280;BME280;8335;42.646;23.380;2023-03-16T10:14:11;142671.88;;;4.31;98.46
8280;BME280;8335;42.646;23.380;2023-03-16T10:16:46;142652.09;;;4.23;98.22
8280;BME280;8335;42.646;23.380;2023-03-16T10:19:17;142613.75;;;4.07;98.58
8280;BME280;8335;42.646;23.380;2023-03-16T10:21:46;142657.03;;;4.25;98.96
8280;BME280;8335;42.646;23.380;2023-03-16T10:24:25;142638.50;;;4.17;97.69
8280;BME280;8335;42.646;23.380;2023-03-16T10:26:57;142660.75;;;4.26;97.84
8280;BME280;8335;42.646;23.380;2023-03-16T10:29:25;142690.44;;;4.38;97.07
8280;BME280;8335;42.646;23.380;2023-03-16T10:31:55;142713.91;;;4.48;97.25
8280;BME280;8335;42.646;23.380;2023-03-16T10:34:25;142682.97;;;4.35;96.03
8280;BME280;8335;42.646;23.380;2023-03-16T10:36:53;142676.81;;;4.33;97.15
8280;BME280;8335;42.646;23.380;2023-03-16T10:39:20;142670.66;;;4.30;97.02
8280;BME280;8335;42.646;23.380;2023-03-16T10:41:56;142684.25;;;4.36;96.40
8280;BME280;8335;42.646;23.380;2023-03-16T10:44:24;142642.19;;;4.19;95.48
8280;BME280;8335;42.646;23.380;2023-03-16T10:46:59;142671.88;;;4.31;95.83
8280;BME280;8335;42.646;23.380;2023-03-16T10:49:27;142629.81;;;4.13;95.45
8280;BME280;8335;42.646;23.380;2023-03-16T10:51:55;142673.13;;;4.31;95.74
8280;BME280;8335;42.646;23.380;2023-03-16T10:54:27;142675.59;;;4.32;96.59
8280;BME280;8335;42.646;23.380;2023-03-16T10:56:56;142670.66;;;4.30;96.39
8280;BME280;8335;42.646;23.380;2023-03-16T10:59:28;142686.72;;;4.37;96.16
8280;BME280;8335;42.646;23.380;2023-03-16T11:01:57;142695.38;;;4.40;96.14
8280;BME280;8335;42.646;23.380;2023-03-16T11:04:24;142699.06;;;4.42;94.83
8280;BME280;8335;42.646;23.380;2023-03-16T11:06:53;142707.75;;;4.46;94.31
8280;BME280;8335;42.646;23.380;2023-03-16T11:09:23;142717.63;;;4.50;94.44
8280;BME280;8335;42.646;23.380;2023-03-16T11:11:52;142702.81;;;4.44;93.51
8280;BME280;8335;42.646;23.380;2023-03-16T11:14:26;142744.84;;;4.61;93.35
8280;BME280;8335;42.646;23.380;2023-03-16T11:16:58;142720.13;;;4.51;92.94
8280;BME280;8335;42.646;23.380;2023-03-16T11:19:28;142690.44;;;4.38;92.27
8280;BME280;8335;42.646;23.380;2023-03-16T11:21:59;142730.00;;;4.55;91.86
8280;BME280;8335;42.646;23.380;2023-03-16T11:24:33;142783.19;;;4.77;90.74
8280;BME280;8335;42.646;23.380;2023-03-16T11:27:05;142756.00;;;4.65;90.47
8280;BME280;8335;42.646;23.380;2023-03-16T11:29:45;142831.44;;;4.96;89.92
8280;BME280;8335;42.646;23.380;2023-03-16T11:32:19;142820.28;;;4.92;91.00
8280;BME280;8335;42.646;23.380;2023-03-16T11:34:49;142824.03;;;4.93;90.24
8280;BME280;8335;42.646;23.380;2023-03-16T11:37:24;142807.94;;;4.87;90.87
8280;BME280;8335;42.646;23.380;2023-03-16T11:40:02;142822.81;;;4.93;88.56
8280;BME280;8335;42.646;23.380;2023-03-16T11:42:43;142783.19;;;4.77;90.19
8280;BME280;8335;42.646;23.380;2023-03-16T11:45:19;142763.41;;;4.68;90.49
8280;BME280;8335;42.646;23.380;2023-03-16T11:48:05;142746.06;;;4.61;89.60
8280;BME280;8335;42.646;23.380;2023-03-16T11:50:44;142793.09;;;4.81;89.06
8280;BME280;8335;42.646;23.380;2023-03-16T11:53:23;142748.53;;;4.62;91.11
8280;BME280;8335;42.646;23.380;2023-03-16T11:56:01;142644.66;;;4.20;89.84
8280;BME280;8335;42.646;23.380;2023-03-16T11:58:39;142738.69;;;4.58;91.74
8280;BME280;8335;42.646;23.380;2023-03-16T12:01:15;142760.94;;;4.67;90.60
8280;BME280;8335;42.646;23.380;2023-03-16T12:03:54;142732.47;;;4.56;92.02
8280;BME280;8335;42.646;23.380;2023-03-16T12:06:52;142699.06;;;4.42;91.34
8280;BME280;8335;42.646;23.380;2023-03-16T12:09:53;142723.81;;;4.52;91.21
8280;BME280;8335;42.646;23.380;2023-03-16T12:12:32;142751.00;;;4.63;91.25
8280;BME280;8335;42.646;23.380;2023-03-16T12:15:18;142725.06;;;4.53;90.80
8280;BME280;8335;42.646;23.380;2023-03-16T12:17:52;142668.19;;;4.29;90.77
8280;BME280;8335;42.646;23.380;2023-03-16T12:20:22;142699.06;;;4.42;90.19
8280;BME280;8335;42.646;23.380;2023-03-16T12:22:52;142655.81;;;4.24;91.30
8280;BME280;8335;42.646;23.380;2023-03-16T12:25:21;142661.97;;;4.27;91.25
8280;BME280;8335;42.646;23.380;2023-03-16T12:27:52;142640.97;;;4.18;91.19
8280;BME280;8335;42.646;23.380;2023-03-16T12:30:35;142606.34;;;4.04;92.19
8280;BME280;8335;42.646;23.380;2023-03-16T12:33:11;142577.91;;;3.92;93.28
8280;BME280;8335;42.646;23.380;2023-03-16T12:35:45;142565.56;;;3.87;95.23
8280;BME280;8335;42.646;23.380;2023-03-16T12:38:21;142570.50;;;3.89;94.22
8280;BME280;8335;42.646;23.380;2023-03-16T12:41:00;142600.19;;;4.01;94.18
8280;BME280;8335;42.646;23.380;2023-03-16T12:43:40;142591.50;;;3.98;92.70
8280;BME280;8335;42.646;23.380;2023-03-16T12:46:14;142597.72;;;4.00;93.59
8280;BME280;8335;42.646;23.380;2023-03-16T12:48:46;142624.88;;;4.11;93.46
8280;BME280;8335;42.646;23.380;2023-03-16T12:51:15;142642.19;;;4.19;93.06
8280;BME280;8335;42.646;23.380;2023-03-16T12:53:45;142649.63;;;4.22;93.31
8280;BME280;8335;42.646;23.380;2023-03-16T12:56:15;142639.72;;;4.18;94.10
8280;BME280;8335;42.646;23.380;2023-03-16T12:58:45;142580.41;;;3.93;94.37
8280;BME280;8335;42.646;23.380;2023-03-16T13:01:14;142507.44;;;3.63;95.78
8280;BME280;8335;42.646;23.380;2023-03-16T13:03:45;142542.06;;;3.77;97.55
8280;BME280;8335;42.646;23.380;2023-03-16T13:06:21;142543.28;;;3.78;97.56
8280;BME280;8335;42.646;23.380;2023-03-16T13:08:53;142532.19;;;3.73;99.34
8280;BME280;8335;42.646;23.380;2023-03-16T13:11:21;142547.03;;;3.79;99.91
8280;BME280;8335;42.646;23.380;2023-03-16T13:13:51;142523.53;;;3.70;100.00